Time;durP1;ratioP1;P1;durP2;ratioP2;P2;SDS_P1;SDS_P2;PMS_P1;PMS_P2;Temp;Humidity;BMP_temperature;BMP_pressure;BME280_temperature;BME280_humidity;BME280_pressure;Samples;Min_cycle;Max_cycle;Signal;HPM_P1;HPM_P2
2021/10/16 00:02:13;;;;;;;25.67;24.08;;;9.10;90.70;;;;;;5028994;28;20697;-68
2021/10/16 00:04:41;;;;;;;25.92;24.25;;;9.10;90.50;;;;;;5026012;28;20205;-68
2021/10/16 00:07:08;;;;;;;25.55;23.88;;;9.10;90.60;;;;;;5022285;28;20201;-68
2021/10/16 00:09:35;;;;;;;24.95;23.35;;;9.00;90.80;;;;;;5026570;28;20583;-69
2021/10/16 00:12:02;;;;;;;24.75;23.25;;;9.00;90.90;;;;;;5031275;28;20870;-68
2021/10/16 00:14:29;;;;;;;25.55;23.90;;;9.00;91.20;;;;;;5027502;28;20204;-68
2021/10/16 00:16:56;;;;;;;25.63;23.92;;;9.00;90.90;;;;;;5027641;28;20640;-68
2021/10/16 00:19:22;;;;;;;24.50;22.83;;;9.00;91.00;;;;;;5027587;28;20810;-68
2021/10/16 00:21:51;;;;;;;25.02;23.35;;;9.00;91.00;;;;;;5021862;28;20213;-68
2021/10/16 00:24:18;;;;;;;24.55;23.10;;;8.90;91.30;;;;;;5027229;28;20895;-68
2021/10/16 00:26:45;;;;;;;24.58;22.98;;;8.90;91.40;;;;;;5025185;28;20199;-68
2021/10/16 00:29:12;;;;;;;25.15;23.55;;;8.90;91.60;;;;;;5028245;28;20224;-68
2021/10/16 00:31:39;;;;;;;24.05;22.40;;;8.90;91.60;;;;;;5022151;28;20816;-68
2021/10/16 00:34:05;;;;;;;27.15;25.20;;;8.90;91.40;;;;;;5026104;28;20197;-68
2021/10/16 00:36:32;;;;;;;25.02;23.42;;;8.90;91.30;;;;;;5021466;28;20292;-68
2021/10/16 00:39:01;;;;;;;25.00;23.15;;;8.90;91.30;;;;;;5027366;28;20276;-68
2021/10/16 00:41:28;;;;;;;25.50;23.90;;;8.80;91.50;;;;;;5026155;28;20220;-68
2021/10/16 00:44:13;;;;;;;26.13;24.23;;;8.70;91.80;;;;;;5026526;28;20487;-68
2021/10/16 00:46:40;;;;;;;25.27;23.60;;;8.70;92.30;;;;;;5027453;28;20223;-69
2021/10/16 00:49:06;;;;;;;25.73;23.95;;;8.70;92.30;;;;;;5027111;28;20221;-68
2021/10/16 00:51:34;;;;;;;25.65;23.92;;;8.70;92.50;;;;;;5024053;28;20213;-68
2021/10/16 00:54:03;;;;;;;26.55;24.85;;;8.80;92.50;;;;;;5027450;28;20200;-68
2021/10/16 00:56:31;;;;;;;26.05;24.40;;;8.80;92.70;;;;;;5018291;28;20221;-69
2021/10/16 00:58:58;;;;;;;26.50;24.50;;;8.90;92.80;;;;;;5026802;28;20202;-68
2021/10/16 01:01:25;;;;;;;26.25;24.40;;;8.90;94.00;;;;;;5025150;28;20474;-68
2021/10/16 01:03:52;;;;;;;25.00;23.40;;;9.00;93.90;;;;;;5024798;28;20240;-68
2021/10/16 01:06:19;;;;;;;25.10;23.40;;;9.00;93.30;;;;;;5026267;28;20284;-68
2021/10/16 01:08:46;;;;;;;23.92;22.23;;;9.00;92.90;;;;;;5028243;28;20221;-69
2021/10/16 01:11:14;;;;;;;24.40;22.77;;;9.00;92.90;;;;;;5026965;28;20222;-68
2021/10/16 01:13:42;;;;;;;24.98;23.38;;;9.00;92.80;;;;;;5030394;28;20197;-68
2021/10/16 01:16:10;;;;;;;24.75;23.05;;;9.10;93.00;;;;;;5022535;28;20325;-69
2021/10/16 01:18:37;;;;;;;24.60;23.00;;;9.10;93.10;;;;;;5025571;28;20751;-68
2021/10/16 01:21:06;;;;;;;26.23;24.27;;;9.20;92.70;;;;;;5015560;28;20213;-68
2021/10/16 01:23:34;;;;;;;25.38;23.65;;;9.20;92.50;;;;;;5023952;28;21084;-68
2021/10/16 01:26:03;;;;;;;26.47;24.57;;;9.30;92.20;;;;;;5019168;28;20220;-69
2021/10/16 01:28:30;;;;;;;24.10;22.60;;;9.30;92.20;;;;;;5019699;28;20487;-68
2021/10/16 01:30:58;;;;;;;25.75;23.95;;;9.30;92.20;;;;;;5026237;28;20575;-68
2021/10/16 01:33:26;;;;;;;24.48;22.95;;;9.40;91.90;;;;;;5025417;28;20208;-69
2021/10/16 01:36:00;;;;;;;24.80;23.30;;;9.40;91.40;;;;;;5019390;28;20573;-69
2021/10/16 01:38:29;;;;;;;24.50;22.93;;;9.40;91.50;;;;;;5026084;28;20662;-69
2021/10/16 01:40:56;;;;;;;24.47;22.97;;;9.40;91.60;;;;;;5023278;28;20487;-69
2021/10/16 01:43:24;;;;;;;25.30;23.60;;;9.40;91.80;;;;;;5023717;28;20466;-69
2021/10/16 01:45:52;;;;;;;25.73;24.03;;;9.40;91.70;;;;;;5024122;28;20455;-69
2021/10/16 01:48:21;;;;;;;24.07;22.57;;;9.60;91.30;;;;;;5025063;28;20463;-69
2021/10/16 01:50:48;;;;;;;25.83;24.23;;;9.50;91.10;;;;;;5011057;28;20495;-69
2021/10/16 01:53:15;;;;;;;25.50;23.70;;;9.60;91.00;;;;;;5023717;28;20464;-69
2021/10/16 01:55:47;;;;;;;26.13;24.23;;;9.60;91.10;;;;;;5026572;28;20475;-69
2021/10/16 01:58:15;;;;;;;24.80;23.30;;;9.60;91.40;;;;;;5030303;28;20455;-70
2021/10/16 02:00:46;;;;;;;26.17;24.53;;;9.70;91.70;;;;;;5022723;28;21027;-69
2021/10/16 02:03:13;;;;;;;26.87;25.17;;;9.70;91.60;;;;;;5025535;28;20575;-69
2021/10/16 02:05:42;;;;;;;28.03;26.10;;;9.80;91.30;;;;;;5021688;28;20958;-69
2021/10/16 02:08:09;;;;;;;31.80;29.30;;;9.80;91.40;;;;;;5025805;28;20460;-69
2021/10/16 02:10:37;;;;;;;29.53;27.53;;;9.80;91.20;;;;;;5023535;28;20483;-69
2021/10/16 02:13:05;;;;;;;26.97;25.10;;;9.80;91.50;;;;;;5016730;28;20466;-69
2021/10/16 02:15:32;;;;;;;26.70;25.10;;;9.90;92.40;;;;;;5019721;28;20590;-70
2021/10/16 02:17:59;;;;;;;26.50;24.67;;;9.90;91.50;;;;;;5022389;28;20996;-69
2021/10/16 02:20:26;;;;;;;27.20;25.40;;;9.90;91.40;;;;;;5019581;28;20467;-69
2021/10/16 02:22:53;;;;;;;27.83;25.80;;;9.80;91.60;;;;;;5022614;28;20476;-69
2021/10/16 02:25:20;;;;;;;26.80;25.00;;;9.80;91.60;;;;;;5017818;28;20460;-69
2021/10/16 02:27:47;;;;;;;26.43;24.63;;;9.80;91.80;;;;;;5020983;28;20467;-68
2021/10/16 02:30:15;;;;;;;26.87;24.97;;;9.70;91.90;;;;;;5019182;28;20483;-68
2021/10/16 02:32:42;;;;;;;26.83;25.13;;;9.80;91.50;;;;;;5019063;28;21015;-68
2021/10/16 02:35:09;;;;;;;27.27;25.33;;;9.70;91.40;;;;;;5021561;28;20629;-69
2021/10/16 02:37:36;;;;;;;27.20;25.20;;;9.80;91.40;;;;;;5020328;28;20456;-68
2021/10/16 02:40:04;;;;;;;27.30;25.47;;;9.80;91.30;;;;;;5021854;28;20950;-68
2021/10/16 02:42:31;;;;;;;28.20;25.87;;;9.80;91.20;;;;;;5018578;28;20490;-68
2021/10/16 02:44:58;;;;;;;26.93;25.03;;;9.80;91.30;;;;;;5023274;28;20460;-68
2021/10/16 02:47:30;;;;;;;27.53;25.63;;;9.70;91.30;;;;;;5019756;28;20460;-68
2021/10/16 02:49:57;;;;;;;26.40;24.73;;;9.70;91.40;;;;;;5021060;28;20484;-68
2021/10/16 02:52:24;;;;;;;27.27;25.47;;;9.80;91.50;;;;;;5022360;28;20479;-68
2021/10/16 02:54:51;;;;;;;27.20;25.10;;;9.80;91.50;;;;;;5022576;28;20468;-69
2021/10/16 02:57:18;;;;;;;26.10;24.37;;;9.80;91.60;;;;;;5025978;28;20460;-68
2021/10/16 02:59:45;;;;;;;25.03;23.53;;;9.80;91.60;;;;;;5025408;28;20452;-68
2021/10/16 03:02:14;;;;;;;28.90;26.87;;;9.90;91.50;;;;;;5022582;28;20475;-68
2021/10/16 03:04:42;;;;;;;27.80;25.90;;;9.90;91.60;;;;;;5022270;28;20478;-68
2021/10/16 03:07:09;;;;;;;27.13;25.30;;;9.90;91.60;;;;;;5021800;28;20545;-68
2021/10/16 03:09:36;;;;;;;25.37;23.77;;;9.90;91.60;;;;;;5021695;28;20845;-69
2021/10/16 03:12:03;;;;;;;25.60;23.70;;;10.00;90.80;;;;;;5022681;28;20574;-68
2021/10/16 03:14:30;;;;;;;26.57;24.70;;;9.90;90.90;;;;;;5024097;28;20492;-68
2021/10/16 03:16:57;;;;;;;26.67;24.87;;;9.90;91.00;;;;;;5026779;28;20460;-69
2021/10/16 03:19:33;;;;;;;27.47;25.60;;;9.90;91.30;;;;;;5028050;28;20452;-68
2021/10/16 03:22:01;;;;;;;25.27;23.57;;;9.90;91.30;;;;;;5023757;28;20479;-68
2021/10/16 03:24:28;;;;;;;26.17;24.47;;;9.90;91.10;;;;;;5023761;28;20479;-68
2021/10/16 03:26:55;;;;;;;27.63;25.70;;;9.90;91.30;;;;;;5019798;28;20456;-69
2021/10/16 03:29:22;;;;;;;27.60;25.70;;;9.90;91.30;;;;;;5024886;28;20482;-69
2021/10/16 03:31:49;;;;;;;28.60;26.70;;;9.90;91.60;;;;;;5024116;28;20506;-68
2021/10/16 03:34:16;;;;;;;26.83;24.97;;;9.90;91.70;;;;;;5026103;28;20460;-68
2021/10/16 03:36:43;;;;;;;28.20;26.20;;;10.00;91.40;;;;;;5025630;28;20491;-68
2021/10/16 03:39:11;;;;;;;26.03;24.33;;;9.90;91.60;;;;;;5021544;28;20866;-69
2021/10/16 03:41:38;;;;;;;28.00;26.10;;;9.90;91.80;;;;;;5019631;28;20480;-69
2021/10/16 03:44:06;;;;;;;28.00;26.07;;;9.80;92.00;;;;;;5022328;28;21228;-68
2021/10/16 03:46:33;;;;;;;25.53;23.93;;;9.80;91.90;;;;;;5020777;28;20467;-68
2021/10/16 03:49:00;;;;;;;26.20;24.40;;;9.80;92.10;;;;;;5020542;28;20467;-68
2021/10/16 03:51:27;;;;;;;29.37;27.10;;;9.80;92.40;;;;;;5022537;28;20471;-68
2021/10/16 03:53:54;;;;;;;28.87;26.77;;;9.80;92.10;;;;;;5020615;28;20463;-68
2021/10/16 03:56:23;;;;;;;28.27;26.27;;;9.80;92.20;;;;;;5022535;28;20460;-68
2021/10/16 03:58:49;;;;;;;28.60;26.30;;;9.80;92.30;;;;;;5023841;28;20464;-68
2021/10/16 04:01:16;;;;;;;28.63;26.20;;;9.80;92.40;;;;;;5021743;28;20516;-68
2021/10/16 04:03:43;;;;;;;28.30;26.17;;;9.80;92.30;;;;;;5022319;28;20965;-68
2021/10/16 04:06:10;;;;;;;29.30;27.10;;;9.80;92.50;;;;;;5022906;28;20475;-68
2021/10/16 04:08:37;;;;;;;28.50;26.30;;;9.80;92.60;;;;;;5024244;28;20551;-68
2021/10/16 04:11:04;;;;;;;27.67;25.77;;;9.80;92.70;;;;;;5020613;28;20570;-68
2021/10/16 04:13:32;;;;;;;29.57;27.30;;;9.80;92.60;;;;;;5021428;28;20466;-69
2021/10/16 04:15:59;;;;;;;31.90;29.30;;;9.80;92.90;;;;;;5019356;28;20456;-68
2021/10/16 04:18:26;;;;;;;32.00;29.30;;;9.80;93.10;;;;;;5021799;28;20551;-68
2021/10/16 04:20:53;;;;;;;31.23;28.70;;;9.70;93.50;;;;;;5021908;28;21236;-68
2021/10/16 04:23:20;;;;;;;30.77;28.57;;;9.70;93.60;;;;;;5024196;28;20481;-68
2021/10/16 04:25:47;;;;;;;31.07;28.53;;;9.80;93.50;;;;;;5024923;28;20456;-68
2021/10/16 04:28:14;;;;;;;29.40;27.20;;;9.90;93.10;;;;;;5028749;28;20985;-69
2021/10/16 04:30:42;;;;;;;29.97;27.47;;;9.90;93.10;;;;;;5025546;28;20566;-68
2021/10/16 04:33:09;;;;;;;32.20;29.53;;;9.90;93.10;;;;;;5028066;28;20864;-68
2021/10/16 04:35:38;;;;;;;32.50;29.87;;;9.90;93.20;;;;;;5024227;28;20559;-68
2021/10/16 04:38:05;;;;;;;30.93;28.20;;;9.90;93.20;;;;;;5026254;28;20467;-68
2021/10/16 04:40:32;;;;;;;30.60;28.20;;;10.00;93.20;;;;;;5020533;28;20530;-68
2021/10/16 04:43:01;;;;;;;33.83;31.13;;;10.00;93.10;;;;;;5019857;28;20523;-68
2021/10/16 04:45:28;;;;;;;34.40;31.60;;;10.00;93.10;;;;;;5017453;28;20517;-68
2021/10/16 04:47:57;;;;;;;32.73;29.83;;;10.00;93.10;;;;;;5022491;28;20483;-68
2021/10/16 04:50:25;;;;;;;34.03;31.10;;;10.10;93.10;;;;;;5019356;28;20857;-68
2021/10/16 04:52:52;;;;;;;33.80;30.60;;;10.00;93.30;;;;;;5020674;28;20460;-68
2021/10/16 04:55:21;;;;;;;35.23;32.13;;;10.00;93.20;;;;;;5023091;28;21136;-72
2021/10/16 04:57:48;;;;;;;34.30;31.40;;;10.10;92.90;;;;;;5019379;28;20502;-68
2021/10/16 05:00:15;;;;;;;35.37;32.13;;;10.00;93.00;;;;;;5018963;28;20456;-68
2021/10/16 05:02:42;;;;;;;35.77;32.47;;;10.00;93.50;;;;;;5019851;28;20486;-68
2021/10/16 05:05:10;;;;;;;35.70;32.33;;;10.00;93.60;;;;;;5022555;28;20461;-68
2021/10/16 05:07:37;;;;;;;36.27;32.97;;;10.00;93.60;;;;;;5024273;28;20558;-68
2021/10/16 05:10:05;;;;;;;33.50;30.80;;;10.00;93.70;;;;;;5020480;28;20476;-68
2021/10/16 05:12:32;;;;;;;35.73;32.37;;;10.00;93.70;;;;;;5024193;28;20484;-68
2021/10/16 05:14:59;;;;;;;36.37;33.13;;;10.00;93.70;;;;;;5017274;28;20459;-68
2021/10/16 05:17:26;;;;;;;37.90;34.57;;;10.00;93.90;;;;;;5022596;28;20555;-69
2021/10/16 05:19:53;;;;;;;35.30;32.13;;;10.00;93.80;;;;;;5020127;28;20456;-68
2021/10/16 05:22:21;;;;;;;36.07;33.07;;;10.00;93.80;;;;;;5027067;28;20478;-69
2021/10/16 05:24:48;;;;;;;36.00;32.90;;;10.00;93.70;;;;;;5024522;28;20577;-69
2021/10/16 05:27:15;;;;;;;37.40;34.13;;;10.10;93.60;;;;;;5023790;28;20456;-70
2021/10/16 05:29:42;;;;;;;36.20;33.10;;;10.10;93.60;;;;;;5020023;28;20480;-69
2021/10/16 05:32:09;;;;;;;37.67;34.30;;;10.10;93.60;;;;;;5026758;28;20480;-69
2021/10/16 05:34:36;;;;;;;35.83;32.33;;;10.10;93.80;;;;;;5026290;28;20456;-69
2021/10/16 05:37:03;;;;;;;36.60;33.00;;;10.10;93.70;;;;;;5026344;28;20455;-75
2021/10/16 05:39:32;;;;;;;41.40;37.50;;;10.10;93.60;;;;;;5020218;28;20993;-69
2021/10/16 05:41:59;;;;;;;39.30;35.60;;;10.40;93.30;;;;;;5027679;28;20324;-69
2021/10/16 05:44:27;;;;;;;32.50;29.60;;;10.40;92.70;;;;;;5023671;28;21030;-69
2021/10/16 05:46:54;;;;;;;31.63;29.23;;;10.40;92.10;;;;;;5018148;28;20463;-69
2021/10/16 05:49:21;;;;;;;29.63;27.57;;;10.40;91.50;;;;;;5020956;28;20946;-70
2021/10/16 05:51:48;;;;;;;30.77;28.53;;;10.30;91.30;;;;;;5027287;28;20483;-69
2021/10/16 05:54:15;;;;;;;29.77;27.73;;;10.20;90.90;;;;;;5023142;28;20472;-69
2021/10/16 05:56:44;;;;;;;29.30;27.30;;;10.20;90.90;;;;;;5030052;28;20455;-69
2021/10/16 05:59:11;;;;;;;29.30;27.30;;;10.10;91.20;;;;;;5025210;28;20460;-69
2021/10/16 06:01:38;;;;;;;30.17;27.97;;;10.20;91.40;;;;;;5026479;28;20846;-69
2021/10/16 06:04:05;;;;;;;30.13;27.93;;;10.30;91.30;;;;;;5024888;28;20809;-69
2021/10/16 06:06:32;;;;;;;29.80;27.80;;;10.40;90.90;;;;;;5020735;28;20562;-70
2021/10/16 06:08:59;;;;;;;29.50;27.37;;;10.30;90.60;;;;;;5025397;28;20913;-69
2021/10/16 06:11:26;;;;;;;31.20;28.90;;;10.30;90.80;;;;;;5020233;28;20492;-71
2021/10/16 06:13:54;;;;;;;31.33;28.77;;;10.30;90.70;;;;;;5021667;28;20969;-72
2021/10/16 06:16:21;;;;;;;29.97;27.57;;;10.30;90.80;;;;;;5019702;28;20464;-70
2021/10/16 06:18:48;;;;;;;31.60;28.70;;;10.30;90.80;;;;;;5020413;28;20448;-70
2021/10/16 06:21:15;;;;;;;31.80;29.60;;;10.30;90.80;;;;;;5023958;28;20483;-70
2021/10/16 06:23:42;;;;;;;32.37;29.87;;;10.10;91.40;;;;;;5024412;28;20460;-71
2021/10/16 06:26:09;;;;;;;30.10;28.00;;;10.10;91.60;;;;;;5020253;28;21053;-70
2021/10/16 06:28:36;;;;;;;32.43;29.83;;;10.10;91.70;;;;;;5030900;28;20539;-69
2021/10/16 06:31:04;;;;;;;31.70;29.20;;;10.20;91.70;;;;;;5025952;28;20506;-69
2021/10/16 06:33:32;;;;;;;32.13;29.73;;;10.30;91.30;;;;;;5024243;28;20466;-70
2021/10/16 06:36:00;;;;;;;30.40;28.20;;;10.40;91.10;;;;;;5023967;28;20201;-72
2021/10/16 06:38:27;;;;;;;31.07;28.73;;;10.30;90.80;;;;;;5028825;28;20861;-72
2021/10/16 06:40:54;;;;;;;30.97;28.67;;;10.30;90.80;;;;;;5023745;28;20470;-73
2021/10/16 06:43:21;;;;;;;30.97;28.80;;;10.30;90.80;;;;;;5026868;28;20452;-71
2021/10/16 06:45:48;;;;;;;29.43;27.33;;;10.30;90.90;;;;;;5026939;28;20506;-73
2021/10/16 06:48:17;;;;;;;30.60;28.40;;;10.30;90.80;;;;;;5028853;28;20466;-73
2021/10/16 06:50:44;;;;;;;30.20;28.03;;;10.40;90.80;;;;;;5025988;28;20964;-73
2021/10/16 06:53:11;;;;;;;29.77;27.60;;;10.40;90.50;;;;;;5027096;28;20455;-74
2021/10/16 06:55:38;;;;;;;29.90;27.80;;;10.50;90.30;;;;;;5024545;28;20450;-73
2021/10/16 06:58:05;;;;;;;29.80;27.70;;;10.50;90.00;;;;;;5030533;28;20550;-72
2021/10/16 07:00:32;;;;;;;30.97;28.67;;;10.60;89.40;;;;;;5022535;28;20451;-71
2021/10/16 07:02:59;;;;;;;29.50;27.27;;;10.60;89.10;;;;;;5023300;28;20447;-71
2021/10/16 07:05:27;;;;;;;29.60;27.50;;;10.60;88.90;;;;;;5027100;28;20460;-71
2021/10/16 07:07:54;;;;;;;33.07;30.70;;;10.60;89.00;;;;;;5028246;28;21052;-69
2021/10/16 07:10:21;;;;;;;31.33;29.13;;;10.60;89.30;;;;;;5028540;28;21025;-69
2021/10/16 07:12:48;;;;;;;30.23;28.03;;;10.70;89.40;;;;;;5028412;28;20460;-69
2021/10/16 07:15:15;;;;;;;30.80;28.57;;;10.80;88.70;;;;;;5027714;28;20495;-69
2021/10/16 07:17:42;;;;;;;30.57;28.20;;;10.70;88.60;;;;;;5028565;28;20462;-69
2021/10/16 07:20:10;;;;;;;31.50;29.30;;;10.70;88.80;;;;;;5029076;28;20456;-69
2021/10/16 07:22:38;;;;;;;31.10;28.60;;;10.70;88.70;;;;;;5028264;28;20479;-70
2021/10/16 07:25:06;;;;;;;31.53;28.93;;;10.80;88.80;;;;;;5024553;28;20460;-71
2021/10/16 07:27:33;;;;;;;30.23;27.90;;;10.80;88.80;;;;;;5024644;28;20971;-70
2021/10/16 07:30:00;;;;;;;30.63;28.40;;;10.80;88.20;;;;;;5028987;28;20499;-70
2021/10/16 07:32:27;;;;;;;30.23;28.03;;;10.80;88.30;;;;;;5032969;28;20478;-70
2021/10/16 07:34:54;;;;;;;31.03;28.53;;;10.80;88.00;;;;;;5026140;28;20462;-69
2021/10/16 07:37:21;;;;;;;31.60;29.30;;;10.80;88.00;;;;;;5020915;28;20455;-69
2021/10/16 07:39:49;;;;;;;32.70;30.20;;;10.80;88.20;;;;;;5026253;28;20457;-69
2021/10/16 07:42:16;;;;;;;34.50;31.73;;;10.90;88.30;;;;;;5022728;28;20595;-69
2021/10/16 07:44:43;;;;;;;31.43;29.23;;;10.80;88.10;;;;;;5022346;28;20499;-69
2021/10/16 07:47:10;;;;;;;33.53;31.17;;;10.90;87.80;;;;;;5024940;28;20543;-69
2021/10/16 07:49:37;;;;;;;33.23;30.60;;;11.00;87.80;;;;;;5022938;28;20464;-69
2021/10/16 07:52:04;;;;;;;30.40;28.27;;;11.10;87.00;;;;;;5027784;28;20574;-69
2021/10/16 07:54:31;;;;;;;32.03;29.43;;;11.20;86.40;;;;;;5018904;28;20467;-70
2021/10/16 07:57:01;;;;;;;31.30;29.10;;;11.20;86.40;;;;;;5028296;28;20464;-69
2021/10/16 07:59:28;;;;;;;31.13;28.57;;;11.20;86.00;;;;;;5024720;28;20457;-69
2021/10/16 08:01:55;;;;;;;33.90;31.50;;;11.30;86.20;;;;;;5020452;28;20482;-69
2021/10/16 08:04:23;;;;;;;31.57;28.93;;;11.30;85.90;;;;;;5025671;28;20459;-69
2021/10/16 08:06:50;;;;;;;31.40;29.00;;;11.40;85.40;;;;;;5029141;28;20507;-70
2021/10/16 08:09:17;;;;;;;30.70;28.50;;;11.20;85.50;;;;;;5023389;28;20464;-70
2021/10/16 08:11:44;;;;;;;30.53;28.10;;;11.10;85.90;;;;;;5028111;28;20509;-71
2021/10/16 08:14:13;;;;;;;30.30;28.17;;;11.00;86.60;;;;;;5023814;28;20468;-71
2021/10/16 08:16:40;;;;;;;31.67;29.40;;;11.00;86.60;;;;;;5026569;28;20464;-70
2021/10/16 08:19:07;;;;;;;31.60;29.10;;;10.90;87.00;;;;;;5025862;28;20672;-70
2021/10/16 08:21:35;;;;;;;33.20;30.50;;;11.00;86.50;;;;;;5018387;28;20472;-70
2021/10/16 08:24:02;;;;;;;32.70;30.43;;;11.10;86.50;;;;;;5025323;28;20456;-70
2021/10/16 08:26:29;;;;;;;32.03;29.63;;;11.10;86.50;;;;;;5019913;28;21065;-71
2021/10/16 08:28:56;;;;;;;32.70;30.20;;;11.20;86.30;;;;;;5020308;28;20550;-71
2021/10/16 08:31:24;;;;;;;32.97;30.67;;;11.20;86.00;;;;;;5024217;28;20823;-71
2021/10/16 08:33:53;;;;;;;34.10;31.57;;;11.10;85.90;;;;;;5028319;28;20827;-71
2021/10/16 08:36:20;;;;;;;32.87;30.27;;;11.00;86.80;;;;;;5027210;28;20562;-70
2021/10/16 08:38:47;;;;;;;34.43;31.70;;;11.10;86.80;;;;;;5024816;28;20456;-70
2021/10/16 08:41:14;;;;;;;35.30;32.43;;;11.10;86.80;;;;;;5025558;28;20479;-71
2021/10/16 08:43:41;;;;;;;36.60;33.37;;;11.20;87.20;;;;;;5024819;28;20467;-70
2021/10/16 08:46:09;;;;;;;41.87;38.23;;;11.20;86.60;;;;;;5024094;28;20809;-70
2021/10/16 08:48:40;;;;;;;41.20;37.20;;;11.40;86.70;;;;;;5025816;28;20483;-70
2021/10/16 08:51:08;;;;;;;42.73;38.63;;;11.50;86.30;;;;;;5025666;28;20480;-70
2021/10/16 08:53:35;;;;;;;43.97;39.40;;;11.70;85.50;;;;;;5030686;28;20957;-70
2021/10/16 08:56:04;;;;;;;42.20;38.00;;;11.70;85.20;;;;;;5022423;28;20551;-70
2021/10/16 08:58:32;;;;;;;44.33;39.83;;;11.50;85.50;;;;;;5025851;28;20909;-70
2021/10/16 09:01:01;;;;;;;42.53;38.23;;;11.40;86.50;;;;;;5025036;28;20871;-70
2021/10/16 09:03:30;;;;;;;48.17;42.93;;;11.50;86.60;;;;;;5025749;28;20484;-71
2021/10/16 09:06:05;;;;;;;45.67;41.07;;;11.70;85.90;;;;;;5027012;28;20464;-70
2021/10/16 09:08:34;;;;;;;44.97;40.67;;;11.90;85.60;;;;;;5027958;28;20451;-70
2021/10/16 09:11:21;;;;;;;45.47;40.83;;;12.00;85.10;;;;;;5025152;28;20479;-70
2021/10/16 09:13:51;;;;;;;42.63;38.43;;;12.00;85.10;;;;;;5023092;28;20833;-70
2021/10/16 09:16:23;;;;;;;42.90;38.90;;;11.90;85.10;;;;;;5023254;28;20550;-70
2021/10/16 09:18:52;;;;;;;45.17;40.87;;;11.80;85.30;;;;;;5025353;28;20975;-71
2021/10/16 09:21:23;;;;;;;43.00;38.50;;;11.70;86.10;;;;;;5020125;28;20993;-70
2021/10/16 09:24:00;;;;;;;41.97;38.10;;;11.80;86.00;;;;;;5026376;28;20475;-70
2021/10/16 09:26:27;;;;;;;40.87;37.00;;;11.80;85.50;;;;;;5024374;28;20456;-70
2021/10/16 09:28:58;;;;;;;42.50;38.60;;;11.70;85.80;;;;;;5021856;28;20448;-70
2021/10/16 09:31:31;;;;;;;44.40;39.70;;;11.60;86.20;;;;;;5019333;28;20554;-71
2021/10/16 09:33:58;;;;;;;44.07;39.77;;;11.60;86.40;;;;;;5016236;28;20463;-70
2021/10/16 09:36:27;;;;;;;42.63;38.30;;;11.70;86.60;;;;;;5024119;28;20459;-71
2021/10/16 09:38:54;;;;;;;46.10;40.83;;;11.80;86.30;;;;;;5021858;28;20567;-71
2021/10/16 09:41:26;;;;;;;43.73;38.27;;;11.90;86.40;;;;;;5021903;28;21183;-71
2021/10/16 09:43:53;;;;;;;43.60;39.50;;;12.00;86.20;;;;;;5025630;28;20471;-70
2021/10/16 09:46:21;;;;;;;40.73;36.93;;;12.10;86.10;;;;;;5023562;28;20464;-71
2021/10/16 09:48:49;;;;;;;43.23;39.03;;;12.30;84.80;;;;;;5025367;28;20491;-71
2021/10/16 09:51:16;;;;;;;41.97;37.97;;;12.40;84.40;;;;;;5020075;28;21092;-73
2021/10/16 09:53:46;;;;;;;42.63;38.80;;;12.50;83.40;;;;;;5020269;28;20471;-71
2021/10/16 09:56:14;;;;;;;40.00;36.47;;;12.60;83.30;;;;;;5024435;28;20463;-71
2021/10/16 09:58:42;;;;;;;43.03;39.17;;;12.60;83.20;;;;;;5020746;28;20461;-71
2021/10/16 10:01:10;;;;;;;41.20;37.40;;;12.80;83.10;;;;;;5015866;28;20988;-71
2021/10/16 10:03:41;;;;;;;41.83;38.33;;;12.80;82.20;;;;;;5015841;28;20535;-71
2021/10/16 10:06:09;;;;;;;40.60;36.70;;;12.90;81.90;;;;;;5027064;28;20467;-71
2021/10/16 10:08:36;;;;;;;38.80;35.47;;;12.90;81.90;;;;;;5026469;28;21051;-71
2021/10/16 10:11:05;;;;;;;40.33;36.63;;;12.80;82.10;;;;;;5028808;28;20867;-71
2021/10/16 10:13:35;;;;;;;41.33;37.63;;;12.80;82.10;;;;;;5019401;28;20466;-71
2021/10/16 10:16:02;;;;;;;44.23;40.27;;;12.80;82.20;;;;;;5023649;28;20451;-71
2021/10/16 10:21:15;;;;;;;45.30;41.20;;;13.00;82.10;;;;;;5028634;28;20494;-71
2021/10/16 10:23:53;;;;;;;43.47;39.40;;;13.20;81.30;;;;;;5026211;28;20964;-71
2021/10/16 10:26:30;;;;;;;43.87;39.77;;;13.50;80.20;;;;;;5027456;28;20914;-71
2021/10/16 10:29:00;;;;;;;44.30;40.20;;;13.80;79.20;;;;;;5019901;28;20565;-71
2021/10/16 10:31:55;;;;;;;44.33;40.47;;;14.00;79.00;;;;;;5027989;28;21033;-71
2021/10/16 10:34:28;;;;;;;44.70;40.80;;;14.20;78.00;;;;;;5027453;28;20467;-71
2021/10/16 10:36:58;;;;;;;43.13;39.13;;;14.30;77.10;;;;;;5030534;28;20517;-72
2021/10/16 10:39:48;;;;;;;44.60;40.50;;;14.40;77.20;;;;;;5025751;28;20460;-73
2021/10/16 10:42:54;;;;;;;46.13;41.97;;;14.80;77.00;;;;;;5019035;28;20469;-73
2021/10/16 10:45:34;;;;;;;46.23;42.23;;;15.00;75.10;;;;;;5024636;28;20979;-73
2021/10/16 10:48:09;;;;;;;49.17;44.47;;;15.30;74.40;;;;;;5028773;28;20795;-72
2021/10/16 10:50:55;;;;;;;45.43;41.43;;;15.50;73.50;;;;;;5024879;28;20471;-71
2021/10/16 10:53:38;;;;;;;46.17;42.07;;;15.70;72.40;;;;;;5024882;28;20456;-71
2021/10/16 10:56:08;;;;;;;46.07;42.10;;;15.60;72.70;;;;;;5022693;28;20467;-71
2021/10/16 10:59:03;;;;;;;46.13;42.27;;;15.90;72.20;;;;;;5027900;28;20452;-71
2021/10/16 11:01:53;;;;;;;47.67;43.10;;;16.20;71.00;;;;;;5027477;28;20507;-72
2021/10/16 11:04:50;;;;;;;45.23;41.63;;;16.30;70.80;;;;;;5020158;28;20890;-71
2021/10/16 11:07:28;;;;;;;46.97;42.87;;;16.20;70.60;;;;;;5023064;28;20471;-71
2021/10/16 11:09:57;;;;;;;45.87;41.87;;;16.20;70.10;;;;;;5025190;28;20563;-70
2021/10/16 11:12:29;;;;;;;46.07;42.10;;;16.10;70.70;;;;;;5022234;28;20550;-71
2021/10/16 11:15:00;;;;;;;47.23;43.20;;;16.00;71.30;;;;;;5020935;28;20814;-71
2021/10/16 11:17:35;;;;;;;45.47;41.77;;;16.00;70.90;;;;;;5026284;28;20799;-71
2021/10/16 11:20:05;;;;;;;44.93;41.17;;;16.00;70.60;;;;;;5025649;28;20463;-71
2021/10/16 11:22:49;;;;;;;42.60;39.20;;;16.00;70.80;;;;;;5029220;28;21162;-70
2021/10/16 11:25:21;;;;;;;43.53;40.07;;;16.10;70.50;;;;;;5023244;28;20459;-70
2021/10/16 11:28:06;;;;;;;43.43;39.87;;;16.10;70.40;;;;;;5025358;28;20478;-71
2021/10/16 11:30:36;;;;;;;44.20;40.70;;;16.20;70.00;;;;;;5025833;28;20474;-71
2021/10/16 11:33:05;;;;;;;44.23;40.63;;;16.30;70.00;;;;;;5024967;28;20578;-71
2021/10/16 11:35:35;;;;;;;44.03;40.53;;;16.30;69.30;;;;;;5028179;28;20470;-71
2021/10/16 11:38:02;;;;;;;44.17;40.97;;;16.00;70.40;;;;;;5027543;28;20907;-70
2021/10/16 11:40:31;;;;;;;43.40;39.90;;;16.00;70.50;;;;;;5021567;28;20460;-70
2021/10/16 11:42:59;;;;;;;44.50;40.80;;;15.80;70.60;;;;;;5026731;28;20515;-69
2021/10/16 11:45:28;;;;;;;42.97;39.53;;;15.60;71.50;;;;;;5025820;28;20989;-70
2021/10/16 11:47:58;;;;;;;43.93;40.50;;;15.60;71.50;;;;;;5027421;28;20542;-71
2021/10/16 11:50:27;;;;;;;44.43;40.67;;;15.40;72.10;;;;;;5023824;28;20559;-71
2021/10/16 11:53:08;;;;;;;42.80;39.40;;;15.40;72.20;;;;;;5025304;28;20487;-70
2021/10/16 11:55:35;;;;;;;45.07;41.67;;;15.20;73.60;;;;;;5021390;28;20845;-71
2021/10/16 11:58:03;;;;;;;40.77;37.73;;;15.10;75.40;;;;;;5025980;28;20809;-72
2021/10/16 12:00:31;;;;;;;45.10;41.53;;;15.00;74.30;;;;;;5025636;28;21020;-72
2021/10/16 12:03:00;;;;;;;41.03;37.73;;;14.90;74.30;;;;;;5024659;28;20463;-71
2021/10/16 12:05:28;;;;;;;41.23;38.13;;;14.90;74.50;;;;;;5024958;28;20529;-71
2021/10/16 12:07:57;;;;;;;41.43;38.13;;;15.00;74.50;;;;;;5028633;28;20464;-71
2021/10/16 12:10:27;;;;;;;41.87;38.67;;;15.00;77.20;;;;;;5025212;28;20566;-71
2021/10/16 12:13:06;;;;;;;40.67;37.63;;;15.10;75.50;;;;;;5023999;28;20570;-71
2021/10/16 12:15:50;;;;;;;41.70;38.60;;;15.20;74.90;;;;;;5025504;28;20464;-71
2021/10/16 12:18:30;;;;;;;41.40;38.20;;;15.30;73.90;;;;;;5026915;28;20467;-71
2021/10/16 12:20:59;;;;;;;42.30;38.73;;;15.30;73.80;;;;;;5024269;28;20912;-71
2021/10/16 12:23:45;;;;;;;40.90;37.70;;;15.40;73.60;;;;;;5022152;28;20531;-70
2021/10/16 12:26:21;;;;;;;40.60;37.40;;;15.50;73.70;;;;;;5025799;28;20482;-71
2021/10/16 12:28:48;;;;;;;39.70;36.63;;;15.60;73.80;;;;;;5024272;28;20455;-72
2021/10/16 12:31:16;;;;;;;40.00;37.00;;;15.70;73.10;;;;;;5025319;28;20472;-72
2021/10/16 12:34:06;;;;;;;38.27;35.57;;;15.50;72.20;;;;;;5026511;28;20488;-74
2021/10/16 12:36:35;;;;;;;38.50;35.77;;;15.30;73.00;;;;;;5025301;28;20458;-71
2021/10/16 12:39:06;;;;;;;41.23;38.13;;;15.30;72.80;;;;;;5023940;28;20957;-72
2021/10/16 12:41:36;;;;;;;40.07;37.27;;;15.30;72.90;;;;;;5024053;28;21070;-72
2021/10/16 12:44:18;;;;;;;39.43;36.50;;;15.30;72.90;;;;;;5019463;28;20468;-72